Time;durP1;ratioP1;P1;durP2;ratioP2;P2;SDS_P1;SDS_P2;PMS_P1;PMS_P2;Temp;Humidity;BMP_temperature;BMP_pressure;BME280_temperature;BME280_humidity;BME280_pressure;Samples;Min_cycle;Max_cycle;Signal;HPM_P1;HPM_P2
2021/12/18 00:04:58;;;;;;;;;;;;;;;7.21;91.47559;104235;;;;-85
2021/12/18 00:09:56;;;;;;;;;;;;;;;7.2;91.46484;104237.3;;;;-85
2021/12/18 00:15:01;;;;;;;;;;;;;;;7.2;91.44141;104234.5;;;;-84
2021/12/18 00:19:56;;;;;;;;;;;;;;;7.2;91.39746;104231.2;;;;-84
2021/12/18 00:24:58;;;;;;;;;;;;;;;7.19;91.37402;104225.6;;;;-85
2021/12/18 00:29:04;;;;;;;4.2;2.2;;;;;;;;;;;;;-86
2021/12/18 00:29:56;;;;;;;;;;;;;;;7.18;91.34961;104221;;;;-85
2021/12/18 00:35:02;;;;;;;;;;;;;;;7.16;91.33691;104217.8;;;;-86
2021/12/18 00:39:57;;;;;;;;;;;;;;;7.16;91.31445;104211.5;;;;-85
2021/12/18 00:45:02;;;;;;;;;;;;;;;7.15;91.2998;104211.6;;;;-86
2021/12/18 00:50:02;;;;;;;;;;;;;;;7.13;91.27637;104214.5;;;;-85
2021/12/18 00:54:56;;;;;;;;;;;;;;;7.13;91.25293;104214.5;;;;-85
2021/12/18 00:59:10;;;;;;;4.1;1.8;;;;;;;;;;;;;-86
2021/12/18 01:00:00;;;;;;;;;;;;;;;7.12;91.25098;104218.2;;;;-86
2021/12/18 01:04:57;;;;;;;;;;;;;;;7.1;91.26855;104216.5;;;;-87
2021/12/18 01:10:05;;;;;;;;;;;;;;;7.09;91.25586;104208.2;;;;-86
2021/12/18 01:15:08;;;;;;;;;;;;;;;7.08;91.24316;104207.3;;;;-83
2021/12/18 01:24:56;;;;;;;;;;;;;;;7.06;91.2373;104209.8;;;;-85
2021/12/18 01:29:11;;;;;;;3;1.4;;;;;;;;;;;;;-85
2021/12/18 01:29:56;;;;;;;;;;;;;;;7.05;91.25684;104210.2;;;;-85
2021/12/18 01:34:57;;;;;;;;;;;;;;;7.04;91.25488;104210.8;;;;-85
2021/12/18 01:39:56;;;;;;;;;;;;;;;7.03;91.25195;104214.3;;;;-84
2021/12/18 01:45:09;;;;;;;;;;;;;;;7.01;91.24023;104222.4;;;;-83
2021/12/18 01:54:58;;;;;;;;;;;;;;;6.99;91.23535;104215.1;;;;-86
2021/12/18 01:59:03;;;;;;;3.3;1.4;;;;;;;;;;;;;-85
2021/12/18 01:59:56;;;;;;;;;;;;;;;6.98;91.21973;104216.2;;;;-86
2021/12/18 02:04:58;;;;;;;;;;;;;;;6.96;91.21582;104219.5;;;;-86
2021/12/18 02:10:06;;;;;;;;;;;;;;;6.95;91.23633;104222.8;;;;-85
2021/12/18 02:20:10;;;;;;;;;;;;;;;6.92;91.26367;104212.8;;;;-85
2021/12/18 02:24:56;;;;;;;;;;;;;;;6.9;91.25781;104209.3;;;;-85
2021/12/18 02:29:04;;;;;;;2.4;1.3;;;;;;;;;;;;;-85
2021/12/18 02:29:56;;;;;;;;;;;;;;;6.89;91.25781;104205.7;;;;-85
2021/12/18 02:35:03;;;;;;;;;;;;;;;6.87;91.25391;104202.3;;;;-83
2021/12/18 02:44:56;;;;;;;;;;;;;;;6.85;91.29199;104201.1;;;;-85
2021/12/18 02:49:56;;;;;;;;;;;;;;;6.84;91.30078;104205.2;;;;-85
2021/12/18 02:54:56;;;;;;;;;;;;;;;6.82;91.30762;104201.5;;;;-85
2021/12/18 02:59:07;;;;;;;2.5;1.1;;;;;;;;;;;;;-84
2021/12/18 02:59:58;;;;;;;;;;;;;;;6.81;91.31738;104205.7;;;;-85
2021/12/18 03:05:00;;;;;;;;;;;;;;;6.78;91.33105;104207.5;;;;-85
2021/12/18 03:25:04;;;;;;;;;;;;;;;6.62;91.27637;104196.3;;;;-86
2021/12/18 03:29:04;;;;;;;2.3;1.1;;;;;;;;;;;;;-84
2021/12/18 03:30:00;;;;;;;;;;;;;;;6.57;91.23438;104198.7;;;;-87
2021/12/18 03:35:00;;;;;;;;;;;;;;;6.54;91.25098;104202.8;;;;-85
2021/12/18 03:40:01;;;;;;;;;;;;;;;6.51;91.20996;104207;;;;-86
2021/12/18 03:45:00;;;;;;;;;;;;;;;6.48;91.22461;104201;;;;-87
2021/12/18 03:50:01;;;;;;;;;;;;;;;6.44;91.20605;104189.1;;;;-86
2021/12/18 03:55:02;;;;;;;;;;;;;;;6.4;91.26367;104186.1;;;;-86
2021/12/18 03:59:02;;;;;;;1.8;0.9;;;;;;;;;;;;;-84
2021/12/18 04:00:00;;;;;;;;;;;;;;;6.37;91.29102;104191.5;;;;-86
2021/12/18 04:05:06;;;;;;;;;;;;;;;6.35;91.3291;104189.4;;;;-84
2021/12/18 04:10:01;;;;;;;;;;;;;;;6.32;91.33398;104182.3;;;;-85
2021/12/18 04:15:05;;;;;;;;;;;;;;;6.31;91.38867;104187.3;;;;-86
2021/12/18 04:20:01;;;;;;;;;;;;;;;6.29;91.4043;104186.7;;;;-85
2021/12/18 04:25:01;;;;;;;;;;;;;;;6.28;91.44434;104182.7;;;;-86
2021/12/18 04:29:03;;;;;;;1.9;0.7;;;;;;;;;;;;;-86
2021/12/18 04:30:00;;;;;;;;;;;;;;;6.26;91.51855;104185.9;;;;-85
2021/12/18 04:35:00;;;;;;;;;;;;;;;6.26;91.56055;104188.4;;;;-85
2021/12/18 04:40:04;;;;;;;;;;;;;;;6.23;91.55469;104183.3;;;;-85
2021/12/18 04:45:00;;;;;;;;;;;;;;;6.2;91.57129;104189.9;;;;-85
2021/12/18 04:50:00;;;;;;;;;;;;;;;6.17;91.55469;104188.6;;;;-87
2021/12/18 04:55:01;;;;;;;;;;;;;;;6.14;91.52637;104190.4;;;;-88
2021/12/18 04:59:06;;;;;;;1.3;0.6;;;;;;;;;;;;;-87
2021/12/18 05:00:00;;;;;;;;;;;;;;;6.12;91.50977;104192.6;;;;-88
2021/12/18 05:05:02;;;;;;;;;;;;;;;6.1;91.5498;104188;;;;-88
2021/12/18 05:10:12;;;;;;;;;;;;;;;6.08;91.56543;104196.2;;;;-86
2021/12/18 05:15:01;;;;;;;;;;;;;;;6.06;91.55078;104201.2;;;;-86
2021/12/18 05:20:00;;;;;;;;;;;;;;;6.03;91.59961;104198.8;;;;-84
2021/12/18 05:25:02;;;;;;;;;;;;;;;6.01;91.65918;104191.6;;;;-85
2021/12/18 05:29:02;;;;;;;1.7;0.6;;;;;;;;;;;;;-85
2021/12/18 05:30:00;;;;;;;;;;;;;;;5.99;91.65723;104191.9;;;;-85
2021/12/18 05:35:01;;;;;;;;;;;;;;;5.98;91.64258;104193.6;;;;-84
2021/12/18 05:40:07;;;;;;;;;;;;;;;5.96;91.65137;104192.6;;;;-84
2021/12/18 05:45:00;;;;;;;;;;;;;;;5.95;91.66992;104195.2;;;;-84
2021/12/18 05:50:00;;;;;;;;;;;;;;;5.93;91.68555;104198.9;;;;-84
2021/12/18 05:55:01;;;;;;;;;;;;;;;5.92;91.71875;104204.5;;;;-84
2021/12/18 05:59:03;;;;;;;2.1;0.6;;;;;;;;;;;;;-87
2021/12/18 06:00:00;;;;;;;;;;;;;;;5.89;91.73438;104197.2;;;;-84
2021/12/18 06:05:00;;;;;;;;;;;;;;;5.88;91.74121;104200.8;;;;-85
2021/12/18 06:10:01;;;;;;;;;;;;;;;5.86;91.69434;104192;;;;-85
2021/12/18 06:15:00;;;;;;;;;;;;;;;5.83;91.70996;104198.5;;;;-85
2021/12/18 06:19:59;;;;;;;;;;;;;;;5.82;91.70801;104197.3;;;;-85
2021/12/18 06:24:59;;;;;;;;;;;;;;;5.8;91.74805;104192.4;;;;-85
2021/12/18 06:29:00;;;;;;;1.6;0.6;;;;;;;;;;;;;-85
2021/12/18 06:30:01;;;;;;;;;;;;;;;5.78;91.69824;104202.8;;;;-84
2021/12/18 06:35:06;;;;;;;;;;;;;;;5.76;91.72754;104204.9;;;;-85
2021/12/18 06:39:59;;;;;;;;;;;;;;;5.74;91.69141;104210.3;;;;-86
2021/12/18 06:45:01;;;;;;;;;;;;;;;5.7;91.67188;104206;;;;-84
2021/12/18 06:50:01;;;;;;;;;;;;;;;5.68;91.66895;104204.9;;;;-85
2021/12/18 06:55:03;;;;;;;;;;;;;;;5.66;91.7168;104205.6;;;;-85
2021/12/18 06:59:01;;;;;;;2.2;0.6;;;;;;;;;;;;;-85
2021/12/18 07:00:00;;;;;;;;;;;;;;;5.64;91.7373;104207.2;;;;-84
2021/12/18 07:05:01;;;;;;;;;;;;;;;5.63;91.76563;104209.1;;;;-84
2021/12/18 07:10:01;;;;;;;;;;;;;;;5.61;91.77344;104209.5;;;;-85
2021/12/18 07:15:00;;;;;;;;;;;;;;;5.61;91.82715;104210.7;;;;-85
2021/12/18 07:20:00;;;;;;;;;;;;;;;5.6;91.79297;104207.4;;;;-85
2021/12/18 07:25:02;;;;;;;;;;;;;;;5.6;91.81445;104208.8;;;;-86
2021/12/18 07:29:08;;;;;;;1.7;0.6;;;;;;;;;;;;;-85
2021/12/18 07:30:00;;;;;;;;;;;;;;;5.59;91.8252;104205;;;;-84
2021/12/18 07:35:01;;;;;;;;;;;;;;;5.58;91.82227;104198.2;;;;-85
2021/12/18 07:40:01;;;;;;;;;;;;;;;5.58;91.85254;104193;;;;-86
2021/12/18 07:45:01;;;;;;;;;;;;;;;5.58;91.85254;104201.2;;;;-85
2021/12/18 07:50:02;;;;;;;;;;;;;;;5.58;91.86328;104203;;;;-85
2021/12/18 07:55:01;;;;;;;;;;;;;;;5.57;91.85254;104201.4;;;;-86
2021/12/18 07:59:09;;;;;;;2.5;0.8;;;;;;;;;;;;;-86
2021/12/18 08:00:02;;;;;;;;;;;;;;;5.57;91.87207;104196.7;;;;-85
2021/12/18 08:05:01;;;;;;;;;;;;;;;5.58;91.90723;104188.9;;;;-84
2021/12/18 08:10:00;;;;;;;;;;;;;;;5.59;91.89941;104195.9;;;;-84
2021/12/18 08:15:00;;;;;;;;;;;;;;;5.59;91.88672;104196.3;;;;-85
2021/12/18 08:20:01;;;;;;;;;;;;;;;5.59;91.85449;104200.4;;;;-85
2021/12/18 08:25:06;;;;;;;;;;;;;;;5.58;91.8418;104196.8;;;;-85
2021/12/18 08:28:57;;;;;;;2.3;1;;;;;;;;;;;;;-86
2021/12/18 08:30:00;;;;;;;;;;;;;;;5.57;91.81738;104197.8;;;;-84
2021/12/18 08:35:01;;;;;;;;;;;;;;;5.57;91.83984;104200.3;;;;-86
2021/12/18 08:40:05;;;;;;;;;;;;;;;5.57;91.81934;104202;;;;-85
2021/12/18 08:45:01;;;;;;;;;;;;;;;5.57;91.77637;104207;;;;-88
2021/12/18 08:50:06;;;;;;;;;;;;;;;5.57;91.78711;104208.8;;;;-87
2021/12/18 08:55:04;;;;;;;;;;;;;;;5.58;91.7998;104202.6;;;;-87
2021/12/18 08:59:00;;;;;;;1.5;0.7;;;;;;;;;;;;;-87
2021/12/18 09:00:02;;;;;;;;;;;;;;;5.6;91.77148;104207.9;;;;-88
2021/12/18 09:05:02;;;;;;;;;;;;;;;5.61;91.80762;104206.7;;;;-87
2021/12/18 09:10:07;;;;;;;;;;;;;;;5.64;91.82422;104208;;;;-87
2021/12/18 09:15:06;;;;;;;;;;;;;;;5.68;91.84082;104206.8;;;;-86
2021/12/18 09:20:01;;;;;;;;;;;;;;;5.72;91.83984;104207.9;;;;-86
2021/12/18 09:25:12;;;;;;;;;;;;;;;5.73;91.82031;104212;;;;-84
2021/12/18 09:28:59;;;;;;;2.4;0.9;;;;;;;;;;;;;-85
2021/12/18 09:30:00;;;;;;;;;;;;;;;5.76;91.78418;104216.5;;;;-85
2021/12/18 09:35:02;;;;;;;;;;;;;;;5.78;91.70996;104211.7;;;;-85
2021/12/18 09:40:00;;;;;;;;;;;;;;;5.8;91.69336;104210.5;;;;-85
2021/12/18 09:45:00;;;;;;;;;;;;;;;5.83;91.68848;104208.3;;;;-86
2021/12/18 09:50:03;;;;;;;;;;;;;;;5.86;91.65234;104208.5;;;;-86
2021/12/18 09:55:04;;;;;;;;;;;;;;;5.91;91.65137;104207.1;;;;-86
2021/12/18 09:59:06;;;;;;;2.4;0.9;;;;;;;;;;;;;-86
2021/12/18 10:00:00;;;;;;;;;;;;;;;5.95;91.62598;104204.2;;;;-86
2021/12/18 10:05:05;;;;;;;;;;;;;;;5.99;91.60156;104200.3;;;;-87
2021/12/18 10:10:02;;;;;;;;;;;;;;;6.03;91.55469;104195.4;;;;-84
2021/12/18 10:15:01;;;;;;;;;;;;;;;6.07;91.48926;104191.9;;;;-85
2021/12/18 10:20:15;;;;;;;;;;;;;;;6.12;91.41211;104187.5;;;;-85
2021/12/18 10:25:11;;;;;;;;;;;;;;;6.15;91.36328;104181.5;;;;-84
2021/12/18 10:28:57;;;;;;;2.5;0.9;;;;;;;;;;;;;-84
2021/12/18 10:35:01;;;;;;;;;;;;;;;6.26;91.22363;104175.4;;;;-84
2021/12/18 10:40:11;;;;;;;;;;;;;;;6.32;91.03906;104171;;;;-82
2021/12/18 10:45:04;;;;;;;;;;;;;;;6.4;90.89063;104168.5;;;;-83
2021/12/18 10:50:00;;;;;;;;;;;;;;;6.46;90.75293;104161.1;;;;-84
2021/12/18 10:55:11;;;;;;;;;;;;;;;6.51;90.63086;104153.5;;;;-84
2021/12/18 10:58:56;;;;;;;2.9;0.9;;;;;;;;;;;;;-84
2021/12/18 11:00:00;;;;;;;;;;;;;;;6.58;90.81055;104161.1;;;;-84
2021/12/18 11:05:19;;;;;;;;;;;;;;;6.67;90.79492;104158.8;;;;-84
2021/12/18 11:10:13;;;;;;;;;;;;;;;6.76;90.97949;104155.1;;;;-83
2021/12/18 11:15:01;;;;;;;;;;;;;;;6.83;91.08887;104158.8;;;;-84
2021/12/18 11:20:00;;;;;;;;;;;;;;;6.9;91.22656;104149.8;;;;-84
2021/12/18 11:32:54;;;;;;;;;;;;;;;7.06;91.36816;104142.8;;;;-86
2021/12/18 11:37:25;;;;;;;;;;;;;;;7.11;91.25977;104133.7;;;;-87
2021/12/18 11:42:32;;;;;;;;;;;;;;;7.17;91.23828;104132.5;;;;-84
2021/12/18 11:47:44;;;;;;;;;;;;;;;7.23;91.16406;104134.4;;;;-85
2021/12/18 11:52:25;;;;;;;;;;;;;;;7.28;91.18457;104121.1;;;;-85
2021/12/18 11:57:36;;;;;;;;;;;;;;;7.32;91.25977;104118.2;;;;-86
2021/12/18 11:58:55;;;;;;;3;0.9;;;;;;;;;;;;;-85
2021/12/18 12:02:36;;;;;;;;;;;;;;;7.36;91.24512;104112.1;;;;-86
2021/12/18 12:15:17;;;;;;;;;;;;;;;7.44;91.28418;104105.6;;;;-87
2021/12/18 12:20:02;;;;;;;;;;;;;;;7.48;91.30371;104104.4;;;;-87
2021/12/18 12:25:17;;;;;;;;;;;;;;;7.51;91.2998;104100.4;;;;-87
2021/12/18 12:29:03;;;;;;;1.8;0.8;;;;;;;;;;;;;-86
2021/12/18 12:30:14;;;;;;;;;;;;;;;7.56;91.27832;104091.6;;;;-87
2021/12/18 12:35:08;;;;;;;;;;;;;;;7.6;91.1416;104088.9;;;;-86
2021/12/18 12:40:09;;;;;;;;;;;;;;;7.64;91.22852;104085.5;;;;-88
2021/12/18 12:45:15;;;;;;;;;;;;;;;7.69;91.19531;104079;;;;-87
2021/12/18 12:50:23;;;;;;;;;;;;;;;7.74;91.19434;104076.1;;;;-86
2021/12/18 12:55:19;;;;;;;;;;;;;;;7.77;91.12305;104066.9;;;;-82
2021/12/18 13:00:17;;;;;;;;;;;;;;;7.8;91.2168;104052.3;;;;-86
2021/12/18 13:05:08;;;;;;;;;;;;;;;7.82;91.13281;104045.5;;;;-87
2021/12/18 13:19:19;;;;;;;;;;;;;;;7.86;90.95801;104041;;;;-86
2021/12/18 13:24:13;;;;;;;;;;;;;;;7.87;90.99121;104044;;;;-86
2021/12/18 13:29:11;;;;;;;1.5;0.8;;;;;;;;;;;;;-87
2021/12/18 13:29:28;;;;;;;;;;;;;;;7.86;91.11133;104034.9;;;;-87
2021/12/18 13:34:27;;;;;;;;;;;;;;;7.87;91.23145;104035.5;;;;-86
2021/12/18 13:39:18;;;;;;;;;;;;;;;7.87;91.27539;104030.4;;;;-87
2021/12/18 13:44:15;;;;;;;;;;;;;;;7.86;91.35254;104022;;;;-85
2021/12/18 13:49:19;;;;;;;;;;;;;;;7.86;91.48242;104016.6;;;;-85
2021/12/18 13:54:14;;;;;;;;;;;;;;;7.85;91.38184;104016.5;;;;-87
2021/12/18 13:58:55;;;;;;;2.1;1.1;;;;;;;;;;;;;-86
2021/12/18 13:59:21;;;;;;;;;;;;;;;7.84;91.31348;104014.3;;;;-86
2021/12/18 14:04:17;;;;;;;;;;;;;;;7.84;91.44531;104014.4;;;;-87
2021/12/18 14:09:23;;;;;;;;;;;;;;;7.82;91.31055;104013.7;;;;-86
2021/12/18 14:14:19;;;;;;;;;;;;;;;7.8;91.12012;104011;;;;-87
2021/12/18 14:19:13;;;;;;;;;;;;;;;7.79;91.03027;104010.1;;;;-85
2021/12/18 14:24:17;;;;;;;;;;;;;;;7.78;90.91699;104015.4;;;;-87
2021/12/18 14:28:55;;;;;;;2.7;1.1;;;;;;;;;;;;;-85
2021/12/18 14:29:17;;;;;;;;;;;;;;;7.76;90.79492;104013.5;;;;-85
2021/12/18 14:44:25;;;;;;;;;;;;;;;7.71;90.99121;104008.6;;;;-86
2021/12/18 14:49:21;;;;;;;;;;;;;;;7.69;91.0752;104011.3;;;;-85
2021/12/18 14:54:14;;;;;;;;;;;;;;;7.67;91.08203;104010.1;;;;-86
2021/12/18 14:58:58;;;;;;;3.1;1.4;;;;;;;;;;;;;-87
2021/12/18 14:59:23;;;;;;;;;;;;;;;7.66;91.24316;104018.5;;;;-86
2021/12/18 15:04:25;;;;;;;;;;;;;;;7.63;91.30273;104015.6;;;;-86
2021/12/18 15:09:16;;;;;;;;;;;;;;;7.61;91.32129;104012.4;;;;-86
2021/12/18 15:14:24;;;;;;;;;;;;;;;7.59;91.28418;104016.2;;;;-86
2021/12/18 15:19:19;;;;;;;;;;;;;;;7.57;91.25684;104019;;;;-86
2021/12/18 15:24:17;;;;;;;;;;;;;;;7.55;91.20703;104016.8;;;;-86
2021/12/18 16:23:37;;;;;;;;;;;;;;;7.3;91.35254;104003.5;;;;-86
2021/12/18 16:28:34;;;;;;;;;;;;;;;7.29;91.33984;104000.6;;;;-85
2021/12/18 16:28:59;;;;;;;3.4;1.6;;;;;;;;;;;;;-85
2021/12/18 16:33:44;;;;;;;;;;;;;;;7.27;91.3252;103997;;;;-85
2021/12/18 16:38:38;;;;;;;;;;;;;;;7.24;91.28613;103994.8;;;;-85
2021/12/18 16:43:44;;;;;;;;;;;;;;;7.22;91.25;103988.7;;;;-86
2021/12/18 16:48:35;;;;;;;;;;;;;;;7.21;91.21289;103992.3;;;;-87
2021/12/18 16:53:37;;;;;;;;;;;;;;;7.18;91.19629;103996.6;;;;-83
2021/12/18 16:58:34;;;;;;;;;;;;;;;7.16;91.18359;103998.4;;;;-87
2021/12/18 16:58:56;;;;;;;3.6;1.8;;;;;;;;;;;;;-87
2021/12/18 17:03:36;;;;;;;;;;;;;;;7.14;91.15625;104000.3;;;;-90
2021/12/18 17:08:54;;;;;;;;;;;;;;;7.12;91.1416;103994.1;;;;-88
2021/12/18 17:13:52;;;;;;;;;;;;;;;7.09;91.08984;103989.9;;;;-87
2021/12/18 17:18:37;;;;;;;;;;;;;;;7.06;91.06445;103991.7;;;;-87
2021/12/18 17:23:38;;;;;;;;;;;;;;;7.04;91.05859;104000.1;;;;-87
2021/12/18 17:28:37;;;;;;;;;;;;;;;7.02;91.02148;103999.4;;;;-86
2021/12/18 17:28:53;;;;;;;4.9;2;;;;;;;;;;;;;-85
2021/12/18 17:33:36;;;;;;;;;;;;;;;6.99;91.0166;104004.5;;;;-87
2021/12/18 17:38:39;;;;;;;;;;;;;;;6.96;90.97754;104005.2;;;;-87
2021/12/18 17:43:37;;;;;;;;;;;;;;;6.93;90.97168;104002.4;;;;-87
2021/12/18 17:48:39;;;;;;;;;;;;;;;6.91;90.97754;103998;;;;-85
2021/12/18 17:53:41;;;;;;;;;;;;;;;6.89;90.98438;103994.4;;;;-86
2021/12/18 17:58:38;;;;;;;;;;;;;;;6.86;90.96777;103995.4;;;;-87
2021/12/18 17:58:53;;;;;;;6.1;2.5;;;;;;;;;;;;;-87
2021/12/18 18:03:34;;;;;;;;;;;;;;;6.85;90.94141;103995.1;;;;-86
2021/12/18 18:08:34;;;;;;;;;;;;;;;6.83;90.92578;103999;;;;-87
2021/12/18 18:13:36;;;;;;;;;;;;;;;6.8;90.91016;103998.4;;;;-84
2021/12/18 18:18:34;;;;;;;;;;;;;;;6.77;90.90332;103999.7;;;;-86
2021/12/18 18:23:40;;;;;;;;;;;;;;;6.74;90.8877;104001.2;;;;-85
2021/12/18 18:28:38;;;;;;;;;;;;;;;6.71;90.86816;103997.9;;;;-87
2021/12/18 18:29:06;;;;;;;5;2.4;;;;;;;;;;;;;-87
2021/12/18 18:33:41;;;;;;;;;;;;;;;6.67;90.85059;103999.2;;;;-87
2021/12/18 18:38:39;;;;;;;;;;;;;;;6.64;90.87598;103992.5;;;;-86
2021/12/18 18:43:37;;;;;;;;;;;;;;;6.62;90.86133;103992.4;;;;-86
2021/12/18 18:49:08;;;;;;;;;;;;;;;6.59;90.84473;103991.6;;;;-87
2021/12/18 18:53:37;;;;;;;;;;;;;;;6.56;90.81543;103988;;;;-86
2021/12/18 18:58:45;;;;;;;;;;;;;;;6.53;90.82031;103982.6;;;;-86
2021/12/18 18:58:58;;;;;;;4.3;2;;;;;;;;;;;;;-86
2021/12/18 19:03:35;;;;;;;;;;;;;;;6.5;90.82617;103981.7;;;;-77
2021/12/18 19:08:35;;;;;;;;;;;;;;;6.48;90.84375;103974.4;;;;-83
2021/12/18 19:13:47;;;;;;;;;;;;;;;6.47;90.85059;103967.9;;;;-88
2021/12/18 19:18:50;;;;;;;;;;;;;;;6.44;90.8457;103965.6;;;;-88
2021/12/18 19:23:40;;;;;;;;;;;;;;;6.42;90.87402;103968.8;;;;-88
2021/12/18 19:28:48;;;;;;;;;;;;;;;6.4;90.89258;103967.8;;;;-89
2021/12/18 19:29:03;;;;;;;4.6;2.3;;;;;;;;;;;;;-89
2021/12/18 19:33:45;;;;;;;;;;;;;;;6.39;90.90137;103965;;;;-86
2021/12/18 19:38:49;;;;;;;;;;;;;;;6.38;90.88672;103964.8;;;;-88
2021/12/18 19:43:41;;;;;;;;;;;;;;;6.36;90.88281;103960.2;;;;-87
2021/12/18 19:48:38;;;;;;;;;;;;;;;6.34;90.88965;103949.7;;;;-88
2021/12/18 19:53:43;;;;;;;;;;;;;;;6.32;90.91895;103941.6;;;;-86
2021/12/18 19:58:36;;;;;;;;;;;;;;;6.31;90.95898;103943.5;;;;-88
2021/12/18 19:58:55;;;;;;;6.1;2.5;;;;;;;;;;;;;-88
2021/12/18 20:08:35;;;;;;;;;;;;;;;6.3;90.96777;103939;;;;-88
2021/12/18 20:13:40;;;;;;;;;;;;;;;6.29;90.97656;103934.9;;;;-88
2021/12/18 20:18:42;;;;;;;;;;;;;;;6.28;90.97461;103932.3;;;;-86
2021/12/18 20:23:39;;;;;;;;;;;;;;;6.27;90.99414;103933.3;;;;-87
2021/12/18 20:28:47;;;;;;;;;;;;;;;6.26;91.00586;103931.4;;;;-87
2021/12/18 20:28:59;;;;;;;6.5;2.5;;;;;;;;;;;;;-87
2021/12/18 20:33:45;;;;;;;;;;;;;;;6.22;91.05078;103925.8;;;;-88
2021/12/18 20:38:36;;;;;;;;;;;;;;;6.23;91.13086;103924.5;;;;-88
2021/12/18 20:43:44;;;;;;;;;;;;;;;6.24;91.13281;103921.9;;;;-86
2021/12/18 20:48:45;;;;;;;;;;;;;;;6.24;91.12207;103927.4;;;;-87
2021/12/18 20:53:38;;;;;;;;;;;;;;;6.24;91.12012;103916.2;;;;-88
2021/12/18 20:58:53;;;;;;;;;;;;;;;6.24;91.13281;103914;;;;-88
2021/12/18 20:59:17;;;;;;;6;2.2;;;;;;;;;;;;;-88
2021/12/18 21:03:45;;;;;;;;;;;;;;;6.24;91.14355;103916;;;;-87
2021/12/18 21:08:36;;;;;;;;;;;;;;;6.24;91.15332;103896.7;;;;-88
2021/12/18 21:13:37;;;;;;;;;;;;;;;6.24;91.1748;103903.1;;;;-87
2021/12/18 21:18:38;;;;;;;;;;;;;;;6.25;91.19824;103903.1;;;;-88
2021/12/18 21:23:37;;;;;;;;;;;;;;;6.25;91.1875;103905.6;;;;-88
2021/12/18 21:28:36;;;;;;;;;;;;;;;6.25;91.19824;103905.8;;;;-88
2021/12/18 21:29:01;;;;;;;5.6;2.4;;;;;;;;;;;;;-88
2021/12/18 21:37:36;;;;;;;;;;;;;;;6.25;91.2207;103899.5;;;;-89
2021/12/18 21:47:36;;;;;;;;;;;;;;;6.26;91.25488;103906.2;;;;-86
2021/12/18 21:52:43;;;;;;;;;;;;;;;6.26;91.27832;103906.6;;;;-90
2021/12/18 21:57:46;;;;;;;;;;;;;;;6.27;91.25684;103903.6;;;;-89
2021/12/18 21:58:49;;;;;;;5.5;2.2;;;;;;;;;;;;;-89
2021/12/18 22:02:34;;;;;;;;;;;;;;;6.27;91.26953;103902.3;;;;-88
2021/12/18 22:07:42;;;;;;;;;;;;;;;6.28;91.29102;103898;;;;-88
2021/12/18 22:12:40;;;;;;;;;;;;;;;6.28;91.28027;103890.5;;;;-88
2021/12/18 22:17:35;;;;;;;;;;;;;;;6.27;91.26953;103886;;;;-89
2021/12/18 22:22:35;;;;;;;;;;;;;;;6.27;91.28027;103881.6;;;;-87
2021/12/18 22:27:42;;;;;;;;;;;;;;;6.28;91.29297;103877.8;;;;-88
2021/12/18 22:28:49;;;;;;;4.5;1.9;;;;;;;;;;;;;-90
2021/12/18 22:32:36;;;;;;;;;;;;;;;6.27;91.30273;103870.2;;;;-89
2021/12/18 22:37:35;;;;;;;;;;;;;;;6.28;91.33496;103862.6;;;;-88
2021/12/18 22:42:34;;;;;;;;;;;;;;;6.29;91.31543;103862.7;;;;-87
2021/12/18 22:47:32;;;;;;;;;;;;;;;6.29;91.31738;103859.4;;;;-88
2021/12/18 22:52:34;;;;;;;;;;;;;;;6.29;91.31738;103857.3;;;;-89
2021/12/18 22:57:42;;;;;;;;;;;;;;;6.29;91.37207;103857.5;;;;-89
2021/12/18 22:58:48;;;;;;;4.3;1.6;;;;;;;;;;;;;-88
2021/12/18 23:02:43;;;;;;;;;;;;;;;6.31;91.39551;103850.4;;;;-88
2021/12/18 23:07:40;;;;;;;;;;;;;;;6.31;91.34473;103857.4;;;;-88
2021/12/18 23:12:49;;;;;;;;;;;;;;;6.32;91.34473;103858.9;;;;-88
2021/12/18 23:17:53;;;;;;;;;;;;;;;6.31;91.36426;103855.3;;;;-89
2021/12/18 23:22:36;;;;;;;;;;;;;;;6.31;91.34473;103851;;;;-87
2021/12/18 23:27:38;;;;;;;;;;;;;;;6.3;91.3623;103843;;;;-82
2021/12/18 23:28:57;;;;;;;4.4;1.7;;;;;;;;;;;;;-83
2021/12/18 23:32:47;;;;;;;;;;;;;;;6.3;91.3623;103837.2;;;;-87
2021/12/18 23:38:45;;;;;;;;;;;;;;;6.3;91.39551;103819.5;;;;-87
2021/12/18 23:43:54;;;;;;;;;;;;;;;6.3;91.39551;103808.8;;;;-88
2021/12/18 23:48:41;;;;;;;;;;;;;;;6.31;91.43945;103807.8;;;;-88
2021/12/18 23:53:30;;;;;;;;;;;;;;;6.31;91.46289;103801;;;;-88
2021/12/18 23:58:30;;;;;;;;;;;;;;;6.31;91.47363;103791.4;;;;-88
2021/12/18 23:58:48;;;;;;;3.7;1.8;;;;;;;;;;;;;-88
